Scottsville, KY (42164)

9:50 PM CDT on August 27, 2014 (GMT -0500)
Plano | Change Station
CLOSE
Current Station
Personal Weather Station
Location: Bowling Green, KY
Elevation: 630 ft
Nearby Weather Stations

Elev 630 ft 36.87 °N, 86.41 °W | Updated 0 second ago

Partly Cloudy
Partly Cloudy
79.1 °F
Feels Like 84 °F
N
0.0
Wind Variable Wind from North
Gusts 0.0 mph

Today
High -- | Low -- °F
--% Chance of Precip.
Yesterday
High -- | Low -- °F
Precip. -- in
6:11 AM 7:20 PM
Waxing Crescent, 6% visible
Pressure 30.07 in
Visibility 10.0 miles
Clouds Few 4800 ft
Heat Index 84 °F
Dew Point 77 °F
Humidity 94%
Rainfall 0.00 in
Snow Depth Not available.
UV 0 out of 12
Pollen 10.00 out of 12
Air Quality Not available.
Flu Activity Not available.
SPECI KBWG 280205Z AUTO 33004KT 10SM FEW048 27/23 A3007 RMK AO2 LTG DSNT W AND NW T02670228

More Conditions Fewer Conditions

Pressure 30.07 in
Visibility 10.0 miles
Clouds Few 4800 ft
Heat Index 84 °F
Dew Point 77 °F
Humidity 94%
Rainfall 0.00 in
Snow Depth Not available.
UV 0 out of 12
Pollen 10.00 out of 12
Air Quality Not available.
Flu Activity Not available.
SPECI KBWG 280205Z AUTO 33004KT 10SM FEW048 27/23 A3007 RMK AO2 LTG DSNT W AND NW T02670228

More Conditions Fewer Conditions

10-Day Weather Forecast

Almanac

Astronomy

Aug. 27, 2014 Rise Set
Actual Time 6:11 AM CDT 7:20 PM CDT
Civil Twilight 5:44 AM CDT 7:46 PM CDT
Nautical Twilight 5:13 AM CDT 8:18 PM CDT
Astronomical Twilight 4:39 AM CDT 8:51 PM CDT
Moon 8:03 AM CDT (8/27) 8:16 PM CDT (8/27)
Length of Visible Light 14h 01m
Length of Day
13h 08m
Tomorrow will be 2m 12s shorter.
Waxing Crescent, 6% of the Moon is Illuminated
Today
Waxing Crescent
Sep 2
First Quarter
Sep 8
Full
Sep 15
Last Quarter
Sep 24
New

Today's Extremes

State Highs State Lows

Community

WunderPhotos

Upload Photos

1,747,884 photos uploaded!

Nearby

Snow Depth

Station Depth Elevation
No new snow has been reported.

Earthquake Activity

City Distance Mag. Time & Date
No recent earthquake activity has been reported nearby.
Minimum magnitude displayed is 2.5.

Coastal Water Temperatures

Place Temperature
No Stations Reporting

Nearby Weather Stations